Time;durP1;ratioP1;P1;durP2;ratioP2;P2;SDS_P1;SDS_P2;PMS_P1;PMS_P2;Temp;Humidity;BMP_temperature;BMP_pressure;BME280_temperature;BME280_humidity;BME280_pressure;Samples;Min_cycle;Max_cycle;Signal;HPM_P1;HPM_P2
2021/01/24 00:00:30;;;;;;;;;;;3.00;95.10;;;;;;4438062;32;35870;-74
2021/01/24 00:02:57;;;;;;;;;;;3.00;95.10;;;;;;4436005;32;40273;-74
2021/01/24 00:05:24;;;;;;;;;;;3.00;95.10;;;;;;4438102;32;37433;-74
2021/01/24 00:07:50;;;;;;;;;;;3.00;95.10;;;;;;4437335;32;36683;-73
2021/01/24 00:10:17;;;;;;;;;;;3.00;95.20;;;;;;4437581;32;40612;-74
2021/01/24 00:12:46;;;;;;;;;;;3.00;95.20;;;;;;4437364;32;19999;-73
2021/01/24 00:15:13;;;;;;;;;;;2.90;95.10;;;;;;4437633;32;38280;-74
2021/01/24 00:17:39;;;;;;;;;;;2.90;95.10;;;;;;4437644;32;38931;-73
2021/01/24 00:20:08;;;;;;;;;;;2.90;95.10;;;;;;4438681;32;20024;-73
2021/01/24 00:22:37;;;;;;;;;;;2.90;95.20;;;;;;4423728;32;35020;-73
2021/01/24 00:25:05;;;;;;;;;;;2.90;95.10;;;;;;4437472;32;36563;-73
2021/01/24 00:27:32;;;;;;;;;;;2.90;95.20;;;;;;4437690;32;31487;-73
2021/01/24 00:29:58;;;;;;;;;;;2.90;95.20;;;;;;4437501;32;38097;-74
2021/01/24 00:32:25;;;;;;;;;;;2.90;95.20;;;;;;4437388;32;27251;-73
2021/01/24 00:34:52;;;;;;;;;;;2.90;95.30;;;;;;4437373;32;30002;-73
2021/01/24 00:37:18;;;;;;;;;;;2.90;95.30;;;;;;4436269;32;39864;-73
2021/01/24 00:39:45;;;;;;;;;;;2.90;95.30;;;;;;4437580;32;33751;-73
2021/01/24 00:42:12;;;;;;;;;;;2.90;95.30;;;;;;4437161;32;29476;-73
2021/01/24 00:44:38;;;;;;;;;;;2.90;95.30;;;;;;4436966;32;33503;-73
2021/01/24 00:47:05;;;;;;;;;;;2.90;95.30;;;;;;4437058;32;31089;-73
2021/01/24 00:49:32;;;;;;;;;;;2.90;95.30;;;;;;4437087;32;26707;-73
2021/01/24 00:51:59;;;;;;;;;;;2.90;95.30;;;;;;4437008;32;40345;-73
2021/01/24 00:54:26;;;;;;;;;;;2.90;95.30;;;;;;4437123;32;41236;-73
2021/01/24 00:56:52;;;;;;;;;;;2.90;95.20;;;;;;4438234;32;20011;-73
2021/01/24 00:59:19;;;;;;;;;;;2.90;95.20;;;;;;4435330;32;41642;-73
2021/01/24 01:01:46;;;;;;;;;;;2.90;95.20;;;;;;4436177;32;42470;-73
2021/01/24 01:04:13;;;;;;;;;;;2.90;95.20;;;;;;4437130;32;42138;-73
2021/01/24 01:06:40;;;;;;;;;;;2.90;95.20;;;;;;4436817;32;38608;-73
2021/01/24 01:09:06;;;;;;;;;;;2.90;95.20;;;;;;4435425;32;28726;-73
2021/01/24 01:11:33;;;;;;;;;;;2.90;95.20;;;;;;4436713;32;37279;-73
2021/01/24 01:13:59;;;;;;;;;;;2.90;95.30;;;;;;4435587;32;28587;-73
2021/01/24 01:16:26;;;;;;;;;;;2.90;95.30;;;;;;4435720;32;32535;-73
2021/01/24 01:18:53;;;;;;;;;;;2.80;95.40;;;;;;4436231;32;20824;-73
2021/01/24 01:21:19;;;;;;;;;;;2.80;95.40;;;;;;4436803;32;31294;-73
2021/01/24 01:23:46;;;;;;;;;;;2.80;95.40;;;;;;4436247;32;39587;-73
2021/01/24 01:26:13;;;;;;;;;;;2.80;95.40;;;;;;4422759;32;26866;-74
2021/01/24 01:28:39;;;;;;;;;;;2.80;95.40;;;;;;4435951;32;42642;-73
2021/01/24 01:31:06;;;;;;;;;;;2.80;95.50;;;;;;4436455;32;33110;-73
2021/01/24 01:33:33;;;;;;;;;;;2.80;95.50;;;;;;4436869;32;34566;-74
2021/01/24 01:36:00;;;;;;;;;;;2.80;95.40;;;;;;4436121;32;20019;-74
2021/01/24 01:38:26;;;;;;;;;;;2.80;95.50;;;;;;4436370;32;38260;-73
2021/01/24 01:40:53;;;;;;;;;;;2.80;95.50;;;;;;4434814;32;41721;-74
2021/01/24 01:43:20;;;;;;;;;;;2.80;95.60;;;;;;4436350;32;32547;-73
2021/01/24 01:45:46;;;;;;;;;;;2.80;95.60;;;;;;4434975;32;33600;-73
2021/01/24 01:48:15;;;;;;;;;;;2.80;95.50;;;;;;4436130;32;36988;-73
2021/01/24 01:50:42;;;;;;;;;;;2.80;95.50;;;;;;4435020;32;32383;-73
2021/01/24 01:53:08;;;;;;;;;;;2.80;95.50;;;;;;4434880;32;32429;-73
2021/01/24 01:55:35;;;;;;;;;;;2.80;95.50;;;;;;4436108;32;41536;-74
2021/01/24 01:58:02;;;;;;;;;;;2.80;95.50;;;;;;4435961;32;33570;-74
2021/01/24 02:00:29;;;;;;;;;;;2.80;95.60;;;;;;4436407;32;32865;-74
2021/01/24 02:03:14;;;;;;;;;;;2.80;96.00;;;;;;4435060;32;27253;-74
2021/01/24 02:05:53;;;;;;;;;;;2.80;95.60;;;;;;4435820;32;20011;-74
2021/01/24 02:08:40;;;;;;;;;;;2.80;95.60;;;;;;4436341;32;32617;-74
2021/01/24 02:11:13;;;;;;;;;;;2.70;95.70;;;;;;4429932;32;36148;-74
2021/01/24 02:13:43;;;;;;;;;;;2.70;95.60;;;;;;4436247;32;27743;-74
2021/01/24 02:16:10;;;;;;;;;;;2.70;95.70;;;;;;4436148;32;37814;-74
2021/01/24 02:18:39;;;;;;;;;;;2.80;95.70;;;;;;4436062;32;34429;-74
2021/01/24 02:21:09;;;;;;;;;;;2.70;95.60;;;;;;4436776;32;20068;-74
2021/01/24 02:23:37;;;;;;;;;;;2.70;95.60;;;;;;4437201;32;20063;-74
2021/01/24 02:26:09;;;;;;;;;;;2.70;95.60;;;;;;4437207;32;20021;-74
2021/01/24 02:28:53;;;;;;;;;;;2.70;95.70;;;;;;4436546;32;20007;-74
2021/01/24 02:31:20;;;;;;;;;;;2.70;95.70;;;;;;4436050;32;20009;-74
2021/01/24 02:33:49;;;;;;;;;;;2.70;95.70;;;;;;4437107;32;20055;-74
2021/01/24 02:36:17;;;;;;;;;;;2.70;95.70;;;;;;4436559;32;20021;-74
2021/01/24 02:38:45;;;;;;;;;;;2.60;95.70;;;;;;4436699;32;20411;-74
2021/01/24 02:41:12;;;;;;;;;;;2.70;95.60;;;;;;4436913;32;20434;-74
2021/01/24 02:43:42;;;;;;;;;;;2.70;95.60;;;;;;4436516;32;20078;-74
2021/01/24 02:46:09;;;;;;;;;;;2.70;95.60;;;;;;4436419;32;20385;-74
2021/01/24 02:48:36;;;;;;;;;;;2.70;95.60;;;;;;4436173;32;20011;-74
2021/01/24 02:51:02;;;;;;;;;;;2.70;95.60;;;;;;4436534;32;20412;-74
2021/01/24 02:53:30;;;;;;;;;;;2.70;95.60;;;;;;4436219;32;20026;-74
2021/01/24 02:55:57;;;;;;;;;;;2.70;95.70;;;;;;4436590;32;20017;-74
2021/01/24 02:58:24;;;;;;;;;;;2.70;95.70;;;;;;4436899;32;20063;-74
2021/01/24 03:00:50;;;;;;;;;;;2.70;95.70;;;;;;4436937;32;20390;-74
2021/01/24 03:03:17;;;;;;;;;;;2.60;95.70;;;;;;4422396;32;20011;-74
2021/01/24 03:05:43;;;;;;;;;;;2.60;95.70;;;;;;4436591;32;20004;-74
2021/01/24 03:08:10;;;;;;;;;;;2.60;95.70;;;;;;4436083;32;20017;-74
2021/01/24 03:10:37;;;;;;;;;;;2.60;95.70;;;;;;4435465;32;20421;-74
2021/01/24 03:13:24;;;;;;;;;;;2.60;95.70;;;;;;4434843;32;20022;-75
2021/01/24 03:15:51;;;;;;;;;;;2.60;95.80;;;;;;4435771;32;42676;-74
2021/01/24 03:18:20;;;;;;;;;;;2.60;95.70;;;;;;4435896;32;31334;-74
2021/01/24 03:20:49;;;;;;;;;;;2.60;95.70;;;;;;4435376;32;31761;-74
2021/01/24 03:23:15;;;;;;;;;;;2.60;95.80;;;;;;4435918;32;37644;-74
2021/01/24 03:25:42;;;;;;;;;;;2.60;95.80;;;;;;4435552;32;40062;-74
2021/01/24 03:28:09;;;;;;;;;;;2.60;95.90;;;;;;4435796;32;29497;-74
2021/01/24 03:30:36;;;;;;;;;;;2.60;95.90;;;;;;4435587;32;28716;-75
2021/01/24 03:33:04;;;;;;;;;;;2.50;95.90;;;;;;4422961;32;20052;-75
2021/01/24 03:35:31;;;;;;;;;;;2.60;95.90;;;;;;4439017;32;21954;-75
2021/01/24 03:37:57;;;;;;;;;;;2.60;95.90;;;;;;4438513;32;20011;-76
2021/01/24 03:40:24;;;;;;;;;;;2.60;95.90;;;;;;4438187;32;38918;-74
2021/01/24 03:42:51;;;;;;;;;;;2.60;95.90;;;;;;4437786;32;40688;-74
2021/01/24 03:45:17;;;;;;;;;;;2.60;95.90;;;;;;4438176;32;38328;-74
2021/01/24 03:47:44;;;;;;;;;;;2.60;95.80;;;;;;4436912;32;26283;-74
2021/01/24 03:50:11;;;;;;;;;;;2.60;95.90;;;;;;4436501;32;39349;-74
2021/01/24 03:52:38;;;;;;;;;;;2.60;95.90;;;;;;4436538;32;38813;-74
2021/01/24 03:55:04;;;;;;;;;;;2.60;95.90;;;;;;4436602;32;38624;-74
2021/01/24 03:57:31;;;;;;;;;;;2.50;96.00;;;;;;4437951;32;28841;-74
2021/01/24 03:59:58;;;;;;;;;;;2.50;96.00;;;;;;4438005;32;42151;-74
2021/01/24 04:02:25;;;;;;;;;;;2.50;96.00;;;;;;4437167;32;20018;-74
2021/01/24 04:04:51;;;;;;;;;;;2.50;96.00;;;;;;4437602;32;33514;-74
2021/01/24 04:07:18;;;;;;;;;;;2.50;96.00;;;;;;4437841;32;38110;-75
2021/01/24 04:09:44;;;;;;;;;;;2.50;96.00;;;;;;4437444;32;36512;-75
2021/01/24 04:12:11;;;;;;;;;;;2.50;96.10;;;;;;4437325;32;39287;-74
2021/01/24 04:14:38;;;;;;;;;;;2.50;96.10;;;;;;4437194;32;20063;-74
2021/01/24 04:17:05;;;;;;;;;;;2.50;96.10;;;;;;4437736;32;41224;-74
2021/01/24 04:19:32;;;;;;;;;;;2.40;96.10;;;;;;4438408;32;22972;-74
2021/01/24 04:21:59;;;;;;;;;;;2.50;96.20;;;;;;4436320;32;29224;-74
2021/01/24 04:24:25;;;;;;;;;;;2.40;96.20;;;;;;4436239;32;38932;-75
2021/01/24 04:26:54;;;;;;;;;;;2.40;96.20;;;;;;4437595;32;39971;-75
2021/01/24 04:29:21;;;;;;;;;;;2.50;96.30;;;;;;4436378;32;22724;-74
2021/01/24 04:31:48;;;;;;;;;;;2.50;96.20;;;;;;4437117;32;38262;-74
2021/01/24 04:34:14;;;;;;;;;;;2.50;96.20;;;;;;4436146;32;30342;-74
2021/01/24 04:36:41;;;;;;;;;;;2.50;96.20;;;;;;4437741;32;25920;-75
2021/01/24 04:39:08;;;;;;;;;;;2.50;96.20;;;;;;4437057;32;36186;-74
2021/01/24 04:41:35;;;;;;;;;;;2.50;96.20;;;;;;4437247;32;34371;-75
2021/01/24 04:44:03;;;;;;;;;;;2.50;96.10;;;;;;4437644;32;29661;-74
2021/01/24 04:46:30;;;;;;;;;;;2.50;96.50;;;;;;4436856;32;36099;-75
2021/01/24 04:48:58;;;;;;;;;;;2.50;96.10;;;;;;4435944;32;27318;-74
2021/01/24 04:51:25;;;;;;;;;;;2.50;96.20;;;;;;4437285;32;36299;-75
2021/01/24 04:53:52;;;;;;;;;;;2.40;96.20;;;;;;4435778;32;35898;-74
2021/01/24 04:56:19;;;;;;;;;;;2.50;96.20;;;;;;4436978;32;43063;-74
2021/01/24 04:58:47;;;;;;;;;;;2.40;96.20;;;;;;4435873;32;37850;-74
2021/01/24 05:01:14;;;;;;;;;;;2.40;96.10;;;;;;4437398;32;20022;-76
2021/01/24 05:03:42;;;;;;;;;;;2.40;96.10;;;;;;4436878;32;20050;-75
2021/01/24 05:06:09;;;;;;;;;;;2.40;96.10;;;;;;4424101;32;20075;-74
2021/01/24 05:08:36;;;;;;;;;;;2.40;96.10;;;;;;4436506;32;20019;-75
2021/01/24 05:11:05;;;;;;;;;;;2.40;96.10;;;;;;4437495;32;20003;-74
2021/01/24 05:13:32;;;;;;;;;;;2.40;96.10;;;;;;4437551;32;20003;-74
2021/01/24 05:15:59;;;;;;;;;;;2.40;96.00;;;;;;4436688;32;20075;-74
2021/01/24 05:18:28;;;;;;;;;;;2.50;96.10;;;;;;4437971;32;20551;-75
2021/01/24 05:20:56;;;;;;;;;;;2.40;96.10;;;;;;4437356;32;20029;-75
2021/01/24 05:23:24;;;;;;;;;;;2.40;96.10;;;;;;4437653;32;20013;-74
2021/01/24 05:25:54;;;;;;;;;;;2.40;96.20;;;;;;4436287;32;20002;-74
2021/01/24 05:28:21;;;;;;;;;;;2.40;96.20;;;;;;4423756;32;19995;-75
2021/01/24 05:30:48;;;;;;;;;;;2.40;96.10;;;;;;4437708;32;20018;-74
2021/01/24 05:33:15;;;;;;;;;;;2.40;96.20;;;;;;4437293;32;20037;-75
2021/01/24 05:35:46;;;;;;;;;;;2.40;96.20;;;;;;4436582;32;20015;-74
2021/01/24 05:38:21;;;;;;;;;;;2.40;96.20;;;;;;4437630;32;20011;-75
2021/01/24 05:40:48;;;;;;;;;;;2.40;96.20;;;;;;4437763;32;20011;-74
2021/01/24 05:43:15;;;;;;;;;;;2.40;96.20;;;;;;4437011;32;19999;-74
2021/01/24 05:45:42;;;;;;;;;;;2.40;96.20;;;;;;4436335;32;20002;-75
2021/01/24 05:48:09;;;;;;;;;;;2.40;96.20;;;;;;4436777;32;20062;-74
2021/01/24 05:50:36;;;;;;;;;;;2.40;96.30;;;;;;4423567;32;20411;-74
2021/01/24 05:53:03;;;;;;;;;;;2.40;96.20;;;;;;4436244;32;20055;-74
2021/01/24 05:55:30;;;;;;;;;;;2.40;96.20;;;;;;4436964;32;20017;-74
2021/01/24 05:57:57;;;;;;;;;;;2.40;96.20;;;;;;4435798;32;20005;-74
2021/01/24 06:00:24;;;;;;;;;;;2.40;96.20;;;;;;4422570;32;32293;-75
2021/01/24 06:02:50;;;;;;;;;;;2.40;96.20;;;;;;4434453;32;41911;-74
2021/01/24 06:05:17;;;;;;;;;;;2.40;96.20;;;;;;4435875;32;40804;-74
2021/01/24 06:07:44;;;;;;;;;;;2.40;96.20;;;;;;4436022;32;33446;-75
2021/01/24 06:10:10;;;;;;;;;;;2.40;96.10;;;;;;4434611;32;39684;-74
2021/01/24 06:12:39;;;;;;;;;;;2.40;96.20;;;;;;4434502;32;42069;-75
2021/01/24 06:15:08;;;;;;;;;;;2.40;96.20;;;;;;4435140;32;35830;-75
2021/01/24 06:17:35;;;;;;;;;;;2.40;96.20;;;;;;4435012;32;23787;-74
2021/01/24 06:20:03;;;;;;;;;;;2.40;96.20;;;;;;4436784;32;20034;-74
2021/01/24 06:22:36;;;;;;;;;;;2.40;96.20;;;;;;4435098;32;33946;-74
2021/01/24 06:25:05;;;;;;;;;;;2.40;96.20;;;;;;4435757;32;33691;-74
2021/01/24 06:27:37;;;;;;;;;;;2.40;96.20;;;;;;4434546;32;30715;-75
2021/01/24 06:30:10;;;;;;;;;;;2.40;96.20;;;;;;4434886;32;24094;-75
2021/01/24 06:32:37;;;;;;;;;;;2.30;96.20;;;;;;4436652;32;20996;-74
2021/01/24 06:35:20;;;;;;;;;;;2.40;96.30;;;;;;4436338;32;26363;-75
2021/01/24 06:38:05;;;;;;;;;;;2.40;96.20;;;;;;4437076;32;20087;-75
2021/01/24 06:40:32;;;;;;;;;;;2.30;96.20;;;;;;4436627;32;20017;-74
2021/01/24 06:43:00;;;;;;;;;;;2.30;96.20;;;;;;4436585;32;20070;-74
2021/01/24 06:45:27;;;;;;;;;;;2.40;96.20;;;;;;4437049;32;20058;-74
2021/01/24 06:47:54;;;;;;;;;;;2.40;96.20;;;;;;4436090;32;19999;-74
2021/01/24 06:50:36;;;;;;;;;;;2.40;96.20;;;;;;4435714;32;20011;-75
2021/01/24 06:53:06;;;;;;;;;;;2.40;96.20;;;;;;4436958;32;20015;-74
2021/01/24 06:55:37;;;;;;;;;;;2.40;96.20;;;;;;4435910;32;20047;-74
2021/01/24 06:58:30;;;;;;;;;;;2.30;96.20;;;;;;4434933;32;31201;-74
2021/01/24 07:01:16;;;;;;;;;;;2.30;96.10;;;;;;4434650;32;38894;-74
2021/01/24 07:03:42;;;;;;;;;;;2.40;96.20;;;;;;4434493;32;40773;-75
2021/01/24 07:06:27;;;;;;;;;;;2.40;96.10;;;;;;4435974;32;21883;-75
2021/01/24 07:08:54;;;;;;;;;;;2.40;96.50;;;;;;4438468;32;20012;-74
2021/01/24 07:11:40;;;;;;;;;;;2.40;96.10;;;;;;4438245;32;20040;-74
2021/01/24 07:14:27;;;;;;;;;;;2.40;96.10;;;;;;4439871;32;20020;-74
2021/01/24 07:16:54;;;;;;;;;;;2.40;96.20;;;;;;4438459;32;20003;-74
2021/01/24 07:19:20;;;;;;;;;;;2.40;96.10;;;;;;4438553;32;41214;-75
2021/01/24 07:21:47;;;;;;;;;;;2.40;96.10;;;;;;4437949;32;41415;-75
2021/01/24 07:24:14;;;;;;;;;;;2.30;96.10;;;;;;4438649;32;33813;-74
2021/01/24 07:26:40;;;;;;;;;;;2.40;96.10;;;;;;4438126;32;34338;-74
2021/01/24 07:29:07;;;;;;;;;;;2.40;96.20;;;;;;4438512;32;32706;-75
2021/01/24 07:31:34;;;;;;;;;;;2.40;96.20;;;;;;4437933;32;38555;-74
2021/01/24 07:34:01;;;;;;;;;;;2.40;96.20;;;;;;4439281;32;20018;-74
2021/01/24 07:36:28;;;;;;;;;;;2.40;96.20;;;;;;4437157;32;31877;-75
2021/01/24 07:38:54;;;;;;;;;;;2.40;96.10;;;;;;4437446;32;37844;-75
2021/01/24 07:41:21;;;;;;;;;;;2.40;96.00;;;;;;4438419;32;34137;-75
2021/01/24 07:43:47;;;;;;;;;;;2.40;96.00;;;;;;4437122;32;30143;-75
2021/01/24 07:46:14;;;;;;;;;;;2.40;96.00;;;;;;4437600;32;41845;-74
2021/01/24 07:48:40;;;;;;;;;;;2.40;96.00;;;;;;4437986;32;39330;-75
2021/01/24 07:51:07;;;;;;;;;;;2.40;96.00;;;;;;4437988;32;40670;-75
2021/01/24 07:53:34;;;;;;;;;;;2.40;96.00;;;;;;4437745;32;34157;-75
2021/01/24 07:56:01;;;;;;;;;;;2.40;96.00;;;;;;4436842;32;38949;-74
2021/01/24 07:58:28;;;;;;;;;;;2.40;96.00;;;;;;4436845;32;23916;-74
2021/01/24 08:00:55;;;;;;;;;;;2.30;95.90;;;;;;4438211;32;29162;-74
2021/01/24 08:03:22;;;;;;;;;;;2.40;96.00;;;;;;4437002;32;39472;-74
2021/01/24 08:05:49;;;;;;;;;;;2.40;96.00;;;;;;4437876;32;25352;-74
2021/01/24 08:08:15;;;;;;;;;;;2.40;95.90;;;;;;4437357;32;37905;-75
2021/01/24 08:10:42;;;;;;;;;;;2.30;96.00;;;;;;4437095;32;36609;-75
2021/01/24 08:13:09;;;;;;;;;;;2.30;96.00;;;;;;4437021;32;20063;-75
2021/01/24 08:15:36;;;;;;;;;;;2.30;96.00;;;;;;4437398;32;34126;-74
2021/01/24 08:18:02;;;;;;;;;;;2.30;96.00;;;;;;4437699;32;37998;-75
2021/01/24 08:20:30;;;;;;;;;;;2.30;96.00;;;;;;4438312;32;20108;-75
2021/01/24 08:22:57;;;;;;;;;;;2.30;95.90;;;;;;4437541;32;25984;-74
2021/01/24 08:25:24;;;;;;;;;;;2.30;95.90;;;;;;4437096;32;40195;-74
2021/01/24 08:27:51;;;;;;;;;;;2.30;95.90;;;;;;4437037;32;41062;-74
2021/01/24 08:30:20;;;;;;;;;;;2.30;95.90;;;;;;4437592;32;33616;-74
2021/01/24 08:32:47;;;;;;;;;;;2.30;95.90;;;;;;4438711;32;20004;-75
2021/01/24 08:35:14;;;;;;;;;;;2.30;95.90;;;;;;4436903;32;20013;-74
2021/01/24 08:37:41;;;;;;;;;;;2.30;95.90;;;;;;4436582;32;20019;-74
2021/01/24 08:40:08;;;;;;;;;;;2.30;95.90;;;;;;4436734;32;20010;-74
2021/01/24 08:42:44;;;;;;;;;;;2.30;95.90;;;;;;4437347;32;20038;-74
2021/01/24 08:45:14;;;;;;;;;;;2.30;95.90;;;;;;4438436;32;20021;-74
2021/01/24 08:47:49;;;;;;;;;;;2.30;95.90;;;;;;4437139;32;20040;-74
2021/01/24 08:50:16;;;;;;;;;;;2.30;95.90;;;;;;4437429;32;20437;-74
2021/01/24 08:52:42;;;;;;;;;;;2.30;95.90;;;;;;4438043;32;20015;-75
2021/01/24 08:55:09;;;;;;;;;;;2.30;95.90;;;;;;4435668;32;43416;-74
2021/01/24 08:57:36;;;;;;;;;;;2.30;95.90;;;;;;4437365;32;33470;-74
2021/01/24 09:00:07;;;;;;;;;;;2.30;95.90;;;;;;4423512;32;28923;-75
2021/01/24 09:02:38;;;;;;;;;;;2.30;95.90;;;;;;4435760;32;38305;-74
2021/01/24 09:05:08;;;;;;;;;;;2.30;95.90;;;;;;4436090;32;40411;-74
2021/01/24 09:07:36;;;;;;;;;;;2.30;95.90;;;;;;4435931;32;29717;-74
2021/01/24 09:10:32;;;;;;;;;;;2.30;95.90;;;;;;4437328;32;29915;-74
2021/01/24 09:13:03;;;;;;;;;;;2.30;95.90;;;;;;4436370;32;30026;-74
2021/01/24 09:15:31;;;;;;;;;;;2.30;95.90;;;;;;4437090;32;19999;-75
2021/01/24 09:17:59;;;;;;;;;;;2.30;95.90;;;;;;4435696;32;33373;-74
2021/01/24 09:20:26;;;;;;;;;;;2.30;95.90;;;;;;4435938;32;26073;-74
2021/01/24 09:22:53;;;;;;;;;;;2.30;95.90;;;;;;4435182;32;37456;-75
2021/01/24 09:25:20;;;;;;;;;;;2.30;95.90;;;;;;4436510;32;44100;-75
2021/01/24 09:27:46;;;;;;;;;;;2.30;95.90;;;;;;4436070;32;43659;-74
2021/01/24 09:30:14;;;;;;;;;;;2.30;95.90;;;;;;4436066;32;43571;-74
2021/01/24 09:32:40;;;;;;;;;;;2.30;95.90;;;;;;4437514;32;20040;-74
2021/01/24 09:35:08;;;;;;;;;;;2.30;95.90;;;;;;4437682;32;20051;-74
2021/01/24 09:37:36;;;;;;;;;;;2.30;95.90;;;;;;4437476;32;20074;-75
2021/01/24 09:40:08;;;;;;;;;;;2.30;95.90;;;;;;4423802;32;20063;-74
2021/01/24 09:42:34;;;;;;;;;;;2.30;95.90;;;;;;4423171;32;19996;-74
2021/01/24 09:45:01;;;;;;;;;;;2.30;95.90;;;;;;4436238;32;20003;-74
2021/01/24 09:47:28;;;;;;;;;;;2.30;95.90;;;;;;4437567;32;20418;-74
2021/01/24 09:49:55;;;;;;;;;;;2.30;95.90;;;;;;4437173;32;20003;-74
2021/01/24 09:52:22;;;;;;;;;;;2.30;95.90;;;;;;4436740;32;20004;-74
2021/01/24 09:54:48;;;;;;;;;;;2.40;95.90;;;;;;4436585;32;20022;-74
2021/01/24 09:57:15;;;;;;;;;;;2.40;95.90;;;;;;4437372;32;20014;-74
2021/01/24 09:59:41;;;;;;;;;;;2.40;95.80;;;;;;4437477;32;19999;-74
2021/01/24 10:02:08;;;;;;;;;;;2.30;95.80;;;;;;4436787;32;20010;-74
2021/01/24 10:04:35;;;;;;;;;;;2.40;95.80;;;;;;4436604;32;20022;-74
2021/01/24 10:07:01;;;;;;;;;;;2.40;95.80;;;;;;4435831;32;20029;-74
2021/01/24 10:09:28;;;;;;;;;;;2.40;95.80;;;;;;4435271;32;20002;-74
2021/01/24 10:11:54;;;;;;;;;;;2.40;95.80;;;;;;4437417;32;20024;-73
2021/01/24 10:14:21;;;;;;;;;;;2.40;95.80;;;;;;4436820;32;20293;-74
2021/01/24 10:16:48;;;;;;;;;;;2.40;95.80;;;;;;4437301;32;20021;-73
2021/01/24 10:19:14;;;;;;;;;;;2.40;95.70;;;;;;4436808;32;20003;-73
2021/01/24 10:21:41;;;;;;;;;;;2.40;95.70;;;;;;4435685;32;20048;-74
2021/01/24 10:24:08;;;;;;;;;;;2.40;95.70;;;;;;4435950;32;19999;-74
2021/01/24 10:26:34;;;;;;;;;;;2.40;95.70;;;;;;4436939;32;20019;-74
2021/01/24 10:29:01;;;;;;;;;;;2.40;95.70;;;;;;4436302;32;20015;-73
2021/01/24 10:31:27;;;;;;;;;;;2.40;95.70;;;;;;4436022;32;20067;-74
2021/01/24 10:33:54;;;;;;;;;;;2.50;95.70;;;;;;4435616;32;19991;-74
2021/01/24 10:36:21;;;;;;;;;;;2.40;95.60;;;;;;4423153;32;20062;-74
2021/01/24 10:38:49;;;;;;;;;;;2.50;95.70;;;;;;4435721;32;20020;-73
2021/01/24 10:41:16;;;;;;;;;;;2.50;95.60;;;;;;4436353;32;19999;-73
2021/01/24 10:43:42;;;;;;;;;;;2.50;95.60;;;;;;4439662;32;20038;-73
2021/01/24 10:46:27;;;;;;;;;;;2.50;95.60;;;;;;4440348;32;20063;-73
2021/01/24 10:48:54;;;;;;;;;;;2.60;95.60;;;;;;4439700;32;20438;-74
2021/01/24 10:51:20;;;;;;;;;;;2.60;95.50;;;;;;4439439;32;20051;-73
2021/01/24 10:53:47;;;;;;;;;;;2.60;95.50;;;;;;4439598;32;20428;-74
2021/01/24 10:56:15;;;;;;;;;;;2.60;95.50;;;;;;4438749;32;20388;-73
2021/01/24 10:58:42;;;;;;;;;;;2.70;95.50;;;;;;4439481;32;20002;-74
2021/01/24 11:01:09;;;;;;;;;;;2.70;95.40;;;;;;4439950;32;20004;-74
2021/01/24 11:03:35;;;;;;;;;;;2.70;95.40;;;;;;4438283;32;20446;-74
2021/01/24 11:06:02;;;;;;;;;;;2.80;95.40;;;;;;4438402;32;20054;-74
2021/01/24 11:08:29;;;;;;;;;;;2.80;95.40;;;;;;4437993;32;20362;-74
2021/01/24 11:10:55;;;;;;;;;;;2.90;95.40;;;;;;4439363;32;20022;-73
2021/01/24 11:13:23;;;;;;;;;;;2.90;95.40;;;;;;4438986;32;20029;-73
2021/01/24 11:15:51;;;;;;;;;;;2.90;95.30;;;;;;4425963;32;19991;-75
2021/01/24 11:18:18;;;;;;;;;;;3.00;95.30;;;;;;4438170;32;20080;-73
2021/01/24 11:20:45;;;;;;;;;;;3.00;95.30;;;;;;4439181;32;20003;-73
2021/01/24 11:23:12;;;;;;;;;;;3.00;95.30;;;;;;4438826;32;20011;-73
2021/01/24 11:25:39;;;;;;;;;;;3.10;95.30;;;;;;4438329;32;20006;-73
2021/01/24 11:28:06;;;;;;;;;;;3.10;95.20;;;;;;4425249;32;20005;-73
2021/01/24 11:30:33;;;;;;;;;;;3.20;95.20;;;;;;4438250;32;20058;-74
2021/01/24 11:32:59;;;;;;;;;;;3.20;95.10;;;;;;4439214;32;20021;-74
2021/01/24 11:35:26;;;;;;;;;;;3.20;95.10;;;;;;4439523;32;20003;-73
2021/01/24 11:37:53;;;;;;;;;;;3.20;95.10;;;;;;4439136;32;20003;-73
2021/01/24 11:40:19;;;;;;;;;;;3.20;95.10;;;;;;4437531;32;20014;-73
2021/01/24 11:42:46;;;;;;;;;;;3.20;95.10;;;;;;4439455;32;20034;-73
2021/01/24 11:45:13;;;;;;;;;;;3.30;95.10;;;;;;4438165;32;20036;-74
2021/01/24 11:47:39;;;;;;;;;;;3.30;95.10;;;;;;4438994;32;20021;-74
2021/01/24 11:50:06;;;;;;;;;;;3.30;95.10;;;;;;4437770;32;19995;-74
2021/01/24 11:52:33;;;;;;;;;;;3.30;95.00;;;;;;4437711;32;20038;-74
2021/01/24 11:55:00;;;;;;;;;;;3.30;95.00;;;;;;4438437;32;20007;-73
2021/01/24 11:57:27;;;;;;;;;;;3.30;95.00;;;;;;4439291;32;20059;-73
2021/01/24 11:59:54;;;;;;;;;;;3.30;95.00;;;;;;4437927;32;20014;-74
2021/01/24 12:02:24;;;;;;;;;;;3.30;95.00;;;;;;4436500;32;39766;-74
2021/01/24 12:04:51;;;;;;;;;;;3.30;95.00;;;;;;4438064;32;38627;-74
2021/01/24 12:07:18;;;;;;;;;;;3.30;94.90;;;;;;4436970;32;20007;-74
2021/01/24 12:09:44;;;;;;;;;;;3.30;94.90;;;;;;4437886;32;21130;-74
2021/01/24 12:12:11;;;;;;;;;;;3.30;94.90;;;;;;4437883;32;35603;-74
2021/01/24 12:14:37;;;;;;;;;;;3.30;94.90;;;;;;4437907;32;35421;-74
2021/01/24 12:17:04;;;;;;;;;;;3.40;95.00;;;;;;4437551;32;32285;-74
2021/01/24 12:19:31;;;;;;;;;;;3.40;94.90;;;;;;4423505;32;43991;-74
2021/01/24 12:21:58;;;;;;;;;;;3.40;94.90;;;;;;4437405;32;34042;-74
2021/01/24 12:24:24;;;;;;;;;;;3.40;94.90;;;;;;4436011;32;45000;-74
2021/01/24 12:26:51;;;;;;;;;;;3.40;94.80;;;;;;4437660;32;38501;-75
2021/01/24 12:29:17;;;;;;;;;;;3.40;94.80;;;;;;4437177;32;36631;-74
2021/01/24 12:31:44;;;;;;;;;;;3.40;94.80;;;;;;4437568;32;41236;-74
2021/01/24 12:34:11;;;;;;;;;;;3.40;94.80;;;;;;4438187;32;20059;-74
2021/01/24 12:36:38;;;;;;;;;;;3.40;94.70;;;;;;4436349;32;26224;-74
2021/01/24 12:39:08;;;;;;;;;;;3.40;94.60;;;;;;4436347;32;25608;-74
2021/01/24 12:41:34;;;;;;;;;;;3.30;94.50;;;;;;4435797;32;39612;-75
2021/01/24 12:44:01;;;;;;;;;;;3.30;94.50;;;;;;4437791;32;20003;-74
2021/01/24 12:46:27;;;;;;;;;;;3.30;94.60;;;;;;4437726;32;26741;-74
2021/01/24 12:48:54;;;;;;;;;;;3.20;94.50;;;;;;4437309;32;37232;-74
2021/01/24 12:51:21;;;;;;;;;;;3.20;94.50;;;;;;4435743;32;39109;-74
2021/01/24 12:53:48;;;;;;;;;;;3.20;94.50;;;;;;4436130;32;44525;-74
2021/01/24 12:56:14;;;;;;;;;;;3.20;94.50;;;;;;4435835;32;28599;-75
2021/01/24 12:58:41;;;;;;;;;;;3.20;94.70;;;;;;4423041;32;31226;-74
2021/01/24 13:01:09;;;;;;;;;;;3.10;94.70;;;;;;4437189;32;42080;-75
2021/01/24 13:03:36;;;;;;;;;;;3.10;94.60;;;;;;4435368;32;44422;-74
2021/01/24 13:06:03;;;;;;;;;;;3.10;94.70;;;;;;4436083;32;32818;-74
2021/01/24 13:08:29;;;;;;;;;;;3.10;94.60;;;;;;4436473;32;40951;-74
2021/01/24 13:10:56;;;;;;;;;;;3.10;94.70;;;;;;4438056;32;20042;-74
2021/01/24 13:13:23;;;;;;;;;;;3.10;94.80;;;;;;4436340;32;44353;-75
2021/01/24 13:15:49;;;;;;;;;;;3.10;94.80;;;;;;4435280;32;45835;-75
2021/01/24 13:18:16;;;;;;;;;;;3.00;94.70;;;;;;4438173;32;20004;-74
2021/01/24 13:20:43;;;;;;;;;;;3.00;94.70;;;;;;4435845;32;28124;-75
2021/01/24 13:23:10;;;;;;;;;;;3.00;94.70;;;;;;4436807;32;40238;-74
2021/01/24 13:25:36;;;;;;;;;;;3.00;94.70;;;;;;4435048;32;44587;-75
2021/01/24 13:28:03;;;;;;;;;;;3.00;94.70;;;;;;4436775;32;38078;-74
2021/01/24 13:30:30;;;;;;;;;;;3.00;94.70;;;;;;4436118;32;40319;-75
2021/01/24 13:32:56;;;;;;;;;;;3.00;94.70;;;;;;4436665;32;20410;-74
2021/01/24 13:35:23;;;;;;;;;;;3.00;94.70;;;;;;4435590;32;33961;-75
2021/01/24 13:37:50;;;;;;;;;;;3.00;94.70;;;;;;4436490;32;40558;-74
2021/01/24 13:40:17;;;;;;;;;;;3.00;94.70;;;;;;4435527;32;35126;-75
2021/01/24 13:42:44;;;;;;;;;;;2.90;94.70;;;;;;4435724;32;23758;-75
2021/01/24 13:45:11;;;;;;;;;;;3.00;94.80;;;;;;4435479;32;38197;-75
2021/01/24 13:47:37;;;;;;;;;;;3.00;94.70;;;;;;4437056;32;20014;-75
2021/01/24 13:50:04;;;;;;;;;;;3.00;94.80;;;;;;4436021;32;19998;-75
2021/01/24 13:52:31;;;;;;;;;;;3.00;94.70;;;;;;4436878;32;20007;-75
2021/01/24 13:54:58;;;;;;;;;;;2.90;94.70;;;;;;4437030;32;20021;-75
2021/01/24 13:57:24;;;;;;;;;;;3.00;94.70;;;;;;4435939;32;20059;-75
2021/01/24 13:59:51;;;;;;;;;;;3.00;94.70;;;;;;4423132;32;20054;-75
2021/01/24 14:02:17;;;;;;;;;;;3.00;94.70;;;;;;4437044;32;20051;-75
2021/01/24 14:04:44;;;;;;;;;;;3.00;94.70;;;;;;4437404;32;20013;-75
2021/01/24 14:07:11;;;;;;;;;;;2.90;94.70;;;;;;4435762;32;20092;-76
2021/01/24 14:09:37;;;;;;;;;;;2.90;94.70;;;;;;4436841;32;20102;-75
2021/01/24 14:12:04;;;;;;;;;;;3.00;94.70;;;;;;4437123;32;20013;-75
2021/01/24 14:14:31;;;;;;;;;;;2.90;94.60;;;;;;4436521;32;20073;-75
2021/01/24 14:16:59;;;;;;;;;;;2.90;94.60;;;;;;4437091;32;20011;-75
2021/01/24 14:19:25;;;;;;;;;;;2.90;94.70;;;;;;4422863;32;20056;-75
2021/01/24 14:21:52;;;;;;;;;;;2.90;94.70;;;;;;4422757;32;20003;-75
2021/01/24 14:24:19;;;;;;;;;;;2.90;94.70;;;;;;4435657;32;20011;-75
2021/01/24 14:26:45;;;;;;;;;;;2.90;94.70;;;;;;4436656;32;20025;-74
2021/01/24 14:29:12;;;;;;;;;;;2.90;94.90;;;;;;4436606;32;20017;-74
2021/01/24 14:31:45;;;;;;;;;;;2.90;94.70;;;;;;4436704;32;20014;-75
2021/01/24 14:34:12;;;;;;;;;;;2.90;94.60;;;;;;4435727;32;20009;-75